sensor_id;sensor_type;location;lat;lon;timestamp;temperature;humidity
37790;DHT22;23628;51.434;6.988;2022-08-25T13:34:48;42.30;42.60
37790;DHT22;23628;51.434;6.988;2022-08-25T13:47:11;40.40;43.80
37790;DHT22;23628;51.434;6.988;2022-08-25T13:49:42;40.00;43.90
37790;DHT22;23628;51.434;6.988;2022-08-25T13:52:25;39.70;44.10
37790;DHT22;23628;51.434;6.988;2022-08-25T14:00:12;39.50;45.00
37790;DHT22;23628;51.434;6.988;2022-08-25T14:02:53;39.90;45.50
37790;DHT22;23628;51.434;6.988;2022-08-25T14:05:37;40.20;44.80
37790;DHT22;23628;51.434;6.988;2022-08-25T14:08:33;40.50;44.90
37790;DHT22;23628;51.434;6.988;2022-08-25T14:16:24;40.40;43.50
37790;DHT22;23628;51.434;6.988;2022-08-25T14:18:54;40.40;43.80
37790;DHT22;23628;51.434;6.988;2022-08-25T14:21:28;40.40;43.00
37790;DHT22;23628;51.434;6.988;2022-08-25T14:26:51;40.40;43.40
37790;DHT22;23628;51.434;6.988;2022-08-25T14:29:23;40.30;43.40
37790;DHT22;23628;51.434;6.988;2022-08-25T14:31:50;40.20;43.50
37790;DHT22;23628;51.434;6.988;2022-08-25T14:39:35;39.30;44.10
37790;DHT22;23628;51.434;6.988;2022-08-25T14:42:11;39.00;44.30
37790;DHT22;23628;51.434;6.988;2022-08-25T14:49:49;38.40;44.80
37790;DHT22;23628;51.434;6.988;2022-08-25T14:52:27;38.10;45.00
37790;DHT22;23628;51.434;6.988;2022-08-25T14:55:03;38.00;45.10
37790;DHT22;23628;51.434;6.988;2022-08-25T14:57:32;35.30;43.50
37790;DHT22;23628;51.434;6.988;2022-08-25T15:00:00;37.80;45.70
37790;DHT22;23628;51.434;6.988;2022-08-25T15:05:06;37.50;45.40
37790;DHT22;23628;51.434;6.988;2022-08-25T15:07:45;37.50;45.70
37790;DHT22;23628;51.434;6.988;2022-08-25T15:16:07;37.00;45.70
37790;DHT22;23628;51.434;6.988;2022-08-25T15:21:28;36.80;46.40
37790;DHT22;23628;51.434;6.988;2022-08-25T15:24:08;36.60;46.50
37790;DHT22;23628;51.434;6.988;2022-08-25T15:31:46;36.40;46.50
37790;DHT22;23628;51.434;6.988;2022-08-25T15:37:13;36.30;46.50
37790;DHT22;23628;51.434;6.988;2022-08-25T15:39:44;36.20;46.50
37790;DHT22;23628;51.434;6.988;2022-08-25T15:42:24;36.10;46.60
37790;DHT22;23628;51.434;6.988;2022-08-25T15:44:51;36.10;46.40
37790;DHT22;23628;51.434;6.988;2022-08-25T15:50:06;36.00;46.80
37790;DHT22;23628;51.434;6.988;2022-08-25T15:52:35;36.00;46.60
37790;DHT22;23628;51.434;6.988;2022-08-25T15:55:16;35.90;46.70
37790;DHT22;23628;51.434;6.988;2022-08-25T15:57:53;35.80;47.10
37790;DHT22;23628;51.434;6.988;2022-08-25T16:00:20;35.90;47.30
37790;DHT22;23628;51.434;6.988;2022-08-25T16:02:49;35.80;47.20
37790;DHT22;23628;51.434;6.988;2022-08-25T16:05:20;35.80;47.00
37790;DHT22;23628;51.434;6.988;2022-08-25T16:08:00;35.70;47.50
37790;DHT22;23628;51.434;6.988;2022-08-25T16:10:44;35.70;47.40
37790;DHT22;23628;51.434;6.988;2022-08-25T16:13:15;35.70;47.30
37790;DHT22;23628;51.434;6.988;2022-08-25T16:16:02;35.70;47.40
37790;DHT22;23628;51.434;6.988;2022-08-25T16:18:29;35.70;47.50
37790;DHT22;23628;51.434;6.988;2022-08-25T16:24:05;35.60;47.70
37790;DHT22;23628;51.434;6.988;2022-08-25T16:26:40;35.50;47.60
37790;DHT22;23628;51.434;6.988;2022-08-25T16:29:22;35.40;48.20
37790;DHT22;23628;51.434;6.988;2022-08-25T16:34:29;35.40;48.50
37790;DHT22;23628;51.434;6.988;2022-08-25T16:37:00;35.30;48.60
37790;DHT22;23628;51.434;6.988;2022-08-25T16:39:26;35.30;48.90
37790;DHT22;23628;51.434;6.988;2022-08-25T16:44:37;35.10;49.50
37790;DHT22;23628;51.434;6.988;2022-08-25T16:47:10;35.10;49.30
37790;DHT22;23628;51.434;6.988;2022-08-25T16:52:20;34.90;50.20
37790;DHT22;23628;51.434;6.988;2022-08-25T17:00:39;34.90;50.20
37790;DHT22;23628;51.434;6.988;2022-08-25T17:03:16;34.70;50.30
37790;DHT22;23628;51.434;6.988;2022-08-25T17:05:50;34.70;50.20
37790;DHT22;23628;51.434;6.988;2022-08-25T17:08:19;34.30;50.80
37790;DHT22;23628;51.434;6.988;2022-08-25T17:11:17;34.70;50.90
37790;DHT22;23628;51.434;6.988;2022-08-25T17:13:49;34.50;51.60
37790;DHT22;23628;51.434;6.988;2022-08-25T17:18:45;34.40;52.70
37790;DHT22;23628;51.434;6.988;2022-08-25T17:23:50;34.10;52.80
37790;DHT22;23628;51.434;6.988;2022-08-25T17:26:18;34.10;53.50
37790;DHT22;23628;51.434;6.988;2022-08-25T17:28:55;34.00;54.80
37790;DHT22;23628;51.434;6.988;2022-08-25T17:31:25;33.80;55.20
37790;DHT22;23628;51.434;6.988;2022-08-25T17:33:53;33.70;55.20
37790;DHT22;23628;51.434;6.988;2022-08-25T17:36:23;33.60;55.70
37790;DHT22;23628;51.434;6.988;2022-08-25T17:38:56;33.50;55.20
37790;DHT22;23628;51.434;6.988;2022-08-25T17:41:25;33.40;56.30
37790;DHT22;23628;51.434;6.988;2022-08-25T17:43:52;33.30;56.90
37790;DHT22;23628;51.434;6.988;2022-08-25T17:46:19;33.20;56.20
37790;DHT22;23628;51.434;6.988;2022-08-25T17:48:46;33.10;57.60
37790;DHT22;23628;51.434;6.988;2022-08-25T17:53:59;32.90;57.60
37790;DHT22;23628;51.434;6.988;2022-08-25T17:56:29;32.80;57.30
37790;DHT22;23628;51.434;6.988;2022-08-25T17:58:57;32.60;57.70
37790;DHT22;23628;51.434;6.988;2022-08-25T18:01:51;32.40;59.00
37790;DHT22;23628;51.434;6.988;2022-08-25T18:04:23;32.30;58.60
37790;DHT22;23628;51.434;6.988;2022-08-25T18:09:33;32.00;59.40
37790;DHT22;23628;51.434;6.988;2022-08-25T18:14:38;31.70;60.90
37790;DHT22;23628;51.434;6.988;2022-08-25T18:17:07;31.70;61.80
37790;DHT22;23628;51.434;6.988;2022-08-25T18:22:12;31.50;61.10
37790;DHT22;23628;51.434;6.988;2022-08-25T18:24:39;31.30;61.60
37790;DHT22;23628;51.434;6.988;2022-08-25T18:27:09;31.20;62.30
37790;DHT22;23628;51.434;6.988;2022-08-25T18:29:37;31.00;62.10
37790;DHT22;23628;51.434;6.988;2022-08-25T18:32:07;30.90;62.60
37790;DHT22;23628;51.434;6.988;2022-08-25T18:34:37;30.90;63.30
37790;DHT22;23628;51.434;6.988;2022-08-25T18:39:42;30.60;63.80
37790;DHT22;23628;51.434;6.988;2022-08-25T18:42:27;30.50;64.80
37790;DHT22;23628;51.434;6.988;2022-08-25T18:45:04;30.50;64.90
37790;DHT22;23628;51.434;6.988;2022-08-25T18:47:40;30.30;64.80
37790;DHT22;23628;51.434;6.988;2022-08-25T18:50:12;30.20;65.10
37790;DHT22;23628;51.434;6.988;2022-08-25T18:52:42;30.10;66.20
37790;DHT22;23628;51.434;6.988;2022-08-25T18:55:11;30.00;65.40
37790;DHT22;23628;51.434;6.988;2022-08-25T19:00:18;29.80;66.00
37790;DHT22;23628;51.434;6.988;2022-08-25T19:02:47;29.70;65.70
37790;DHT22;23628;51.434;6.988;2022-08-25T19:05:15;29.70;66.20
37790;DHT22;23628;51.434;6.988;2022-08-25T19:07:42;29.60;66.60
37790;DHT22;23628;51.434;6.988;2022-08-25T19:10:18;29.50;66.20
37790;DHT22;23628;51.434;6.988;2022-08-25T19:12:52;29.40;66.80
37790;DHT22;23628;51.434;6.988;2022-08-25T19:15:26;29.30;67.10
37790;DHT22;23628;51.434;6.988;2022-08-25T19:17:54;29.20;67.60
